sensor_id;sensor_type;location;lat;lon;timestamp;pressure;altitude;pressure_sealevel;temperature;humidity
50684;BME280;36654;45.042;38.994;2023-11-21T00:00:16;100431.13;;;3.77;91.47
50684;BME280;36654;45.042;38.994;2023-11-21T00:02:43;100432.16;;;3.82;91.30
50684;BME280;36654;45.042;38.994;2023-11-21T00:05:11;100430.06;;;3.72;91.45
50684;BME280;36654;45.042;38.994;2023-11-21T00:07:40;100449.75;;;3.84;91.65
50684;BME280;36654;45.042;38.994;2023-11-21T00:10:06;100453.25;;;3.85;91.78
50684;BME280;36654;45.042;38.994;2023-11-21T00:12:36;100456.84;;;3.87;91.80
50684;BME280;36654;45.042;38.994;2023-11-21T00:15:03;100406.81;;;3.55;91.64
50684;BME280;36654;45.042;38.994;2023-11-21T00:17:30;100452.06;;;3.75;91.67
50684;BME280;36654;45.042;38.994;2023-11-21T00:19:56;100461.75;;;3.78;91.77
50684;BME280;36654;45.042;38.994;2023-11-21T00:22:22;100458.19;;;3.76;91.44
50684;BME280;36654;45.042;38.994;2023-11-21T00:24:47;100455.56;;;3.76;91.47
50684;BME280;36654;45.042;38.994;2023-11-21T00:27:13;100440.25;;;3.62;91.33
50684;BME280;36654;45.042;38.994;2023-11-21T00:29:40;100398.63;;;3.46;91.56
50684;BME280;36654;45.042;38.994;2023-11-21T00:32:06;100444.72;;;3.65;91.52
50684;BME280;36654;45.042;38.994;2023-11-21T00:34:32;100467.56;;;3.69;91.46
50684;BME280;36654;45.042;38.994;2023-11-21T00:36:58;100458.91;;;3.72;91.51
50684;BME280;36654;45.042;38.994;2023-11-21T00:39:24;100416.03;;;3.44;91.43
50684;BME280;36654;45.042;38.994;2023-11-21T00:41:52;100399.16;;;3.36;91.39
50684;BME280;36654;45.042;38.994;2023-11-21T00:44:18;100442.75;;;3.59;91.33
50684;BME280;36654;45.042;38.994;2023-11-21T00:46:43;100459.44;;;3.61;91.22
50684;BME280;36654;45.042;38.994;2023-11-21T00:49:09;100458.53;;;3.61;91.44
50684;BME280;36654;45.042;38.994;2023-11-21T00:51:35;100417.41;;;3.34;91.19
50684;BME280;36654;45.042;38.994;2023-11-21T00:54:01;100479.25;;;3.53;91.39
50684;BME280;36654;45.042;38.994;2023-11-21T00:56:27;100451.75;;;3.42;91.57
50684;BME280;36654;45.042;38.994;2023-11-21T00:58:53;100465.00;;;3.45;91.72
50684;BME280;36654;45.042;38.994;2023-11-21T01:01:19;100485.81;;;3.42;91.89
50684;BME280;36654;45.042;38.994;2023-11-21T01:03:48;100479.53;;;3.37;91.96
50684;BME280;36654;45.042;38.994;2023-11-21T01:06:17;100472.25;;;3.28;92.28
50684;BME280;36654;45.042;38.994;2023-11-21T01:08:45;100493.59;;;3.39;92.42
50684;BME280;36654;45.042;38.994;2023-11-21T01:11:11;100488.13;;;3.33;92.32
50684;BME280;36654;45.042;38.994;2023-11-21T01:13:41;100503.97;;;3.36;92.56
50684;BME280;36654;45.042;38.994;2023-11-21T01:16:08;100503.84;;;3.33;92.83
50684;BME280;36654;45.042;38.994;2023-11-21T01:18:34;100509.09;;;3.33;93.02
50684;BME280;36654;45.042;38.994;2023-11-21T01:21:00;100523.16;;;3.35;93.13
50684;BME280;36654;45.042;38.994;2023-11-21T01:23:26;100521.47;;;3.37;93.50
50684;BME280;36654;45.042;38.994;2023-11-21T01:25:52;100532.78;;;3.36;93.42
50684;BME280;36654;45.042;38.994;2023-11-21T01:28:18;100534.56;;;3.37;93.56
50684;BME280;36654;45.042;38.994;2023-11-21T01:30:45;100533.63;;;3.35;93.85
50684;BME280;36654;45.042;38.994;2023-11-21T01:33:11;100533.63;;;3.35;93.96
50684;BME280;36654;45.042;38.994;2023-11-21T01:35:37;100549.34;;;3.35;93.89
50684;BME280;36654;45.042;38.994;2023-11-21T01:38:02;100487.13;;;3.05;94.01
50684;BME280;36654;45.042;38.994;2023-11-21T01:40:29;100562.56;;;3.38;93.99
50684;BME280;36654;45.042;38.994;2023-11-21T01:42:55;100545.69;;;3.30;93.92
50684;BME280;36654;45.042;38.994;2023-11-21T01:45:22;100562.56;;;3.38;94.12
50684;BME280;36654;45.042;38.994;2023-11-21T01:47:50;100544.72;;;3.28;93.97
50684;BME280;36654;45.042;38.994;2023-11-21T01:50:16;100550.16;;;3.34;93.83
50684;BME280;36654;45.042;38.994;2023-11-21T01:52:46;100564.16;;;3.34;93.90
50684;BME280;36654;45.042;38.994;2023-11-21T01:55:14;100567.63;;;3.33;93.42
50684;BME280;36654;45.042;38.994;2023-11-21T01:57:43;100568.50;;;3.34;93.46
50684;BME280;36654;45.042;38.994;2023-11-21T02:00:09;100564.94;;;3.32;93.25
50684;BME280;36654;45.042;38.994;2023-11-21T02:02:47;100558.78;;;3.30;93.05
50684;BME280;36654;45.042;38.994;2023-11-21T02:05:16;100579.75;;;3.30;93.01
50684;BME280;36654;45.042;38.994;2023-11-21T02:07:44;100569.09;;;3.25;92.86
50684;BME280;36654;45.042;38.994;2023-11-21T02:10:11;100563.94;;;3.28;92.88
50684;BME280;36654;45.042;38.994;2023-11-21T02:12:48;100546.00;;;3.15;93.06
50684;BME280;36654;45.042;38.994;2023-11-21T02:15:16;100570.84;;;3.26;92.97
50684;BME280;36654;45.042;38.994;2023-11-21T02:17:46;100568.41;;;3.31;92.69
50684;BME280;36654;45.042;38.994;2023-11-21T02:20:17;100567.06;;;3.18;92.63
50684;BME280;36654;45.042;38.994;2023-11-21T02:22:51;100598.84;;;3.27;92.49
50684;BME280;36654;45.042;38.994;2023-11-21T02:25:27;100582.81;;;3.19;92.53
50684;BME280;36654;45.042;38.994;2023-11-21T02:27:54;100575.91;;;3.21;92.35
50684;BME280;36654;45.042;38.994;2023-11-21T02:30:21;100576.75;;;3.20;92.31
50684;BME280;36654;45.042;38.994;2023-11-21T02:32:50;100581.88;;;3.17;92.47
50684;BME280;36654;45.042;38.994;2023-11-21T02:35:19;100584.31;;;3.13;92.24
50684;BME280;36654;45.042;38.994;2023-11-21T02:37:47;100602.06;;;3.20;92.36
50684;BME280;36654;45.042;38.994;2023-11-21T02:40:12;100601.03;;;3.16;92.27
50684;BME280;36654;45.042;38.994;2023-11-21T02:42:39;100588.72;;;3.14;92.35
50684;BME280;36654;45.042;38.994;2023-11-21T02:45:07;100595.81;;;3.16;92.35
50684;BME280;36654;45.042;38.994;2023-11-21T02:47:33;100597.59;;;3.17;92.51
50684;BME280;36654;45.042;38.994;2023-11-21T02:49:59;100601.28;;;3.22;92.74
50684;BME280;36654;45.042;38.994;2023-11-21T02:52:25;100615.34;;;3.24;92.70
50684;BME280;36654;45.042;38.994;2023-11-21T02:54:51;100617.00;;;3.22;92.56
50684;BME280;36654;45.042;38.994;2023-11-21T02:57:17;100607.25;;;3.18;92.63
50684;BME280;36654;45.042;38.994;2023-11-21T02:59:42;100580.38;;;3.01;92.58
50684;BME280;36654;45.042;38.994;2023-11-21T03:02:08;100578.41;;;2.96;92.58
50684;BME280;36654;45.042;38.994;2023-11-21T03:04:34;100616.75;;;3.16;92.68
50684;BME280;36654;45.042;38.994;2023-11-21T03:07:00;100632.72;;;3.22;92.57
50684;BME280;36654;45.042;38.994;2023-11-21T03:09:26;100617.53;;;3.14;92.34
50684;BME280;36654;45.042;38.994;2023-11-21T03:11:55;100625.47;;;3.15;92.35
50684;BME280;36654;45.042;38.994;2023-11-21T03:14:21;100636.16;;;3.21;92.38
50684;BME280;36654;45.042;38.994;2023-11-21T03:16:48;100639.75;;;3.23;92.38
50684;BME280;36654;45.042;38.994;2023-11-21T03:19:14;100633.25;;;3.14;92.47
50684;BME280;36654;45.042;38.994;2023-11-21T03:21:40;100638.09;;;3.26;92.43
50684;BME280;36654;45.042;38.994;2023-11-21T03:24:06;100630.03;;;3.21;92.37
50684;BME280;36654;45.042;38.994;2023-11-21T03:26:33;100636.16;;;3.21;92.42
50684;BME280;36654;45.042;38.994;2023-11-21T03:28:58;100643.22;;;3.22;92.40
50684;BME280;36654;45.042;38.994;2023-11-21T03:31:24;100604.69;;;2.97;92.33
50684;BME280;36654;45.042;38.994;2023-11-21T03:33:50;100668.56;;;3.23;92.49
50684;BME280;36654;45.042;38.994;2023-11-21T03:36:15;100650.31;;;3.25;92.48
50684;BME280;36654;45.042;38.994;2023-11-21T03:38:41;100657.28;;;3.24;92.60
50684;BME280;36654;45.042;38.994;2023-11-21T03:41:07;100669.41;;;3.22;92.52
50684;BME280;36654;45.042;38.994;2023-11-21T03:43:36;100666.78;;;3.22;92.67
50684;BME280;36654;45.042;38.994;2023-11-21T03:46:02;100678.84;;;3.19;92.51
50684;BME280;36654;45.042;38.994;2023-11-21T03:48:27;100664.88;;;3.18;92.63
50684;BME280;36654;45.042;38.994;2023-11-21T03:50:53;100667.38;;;3.15;92.85
50684;BME280;36654;45.042;38.994;2023-11-21T03:53:19;100687.38;;;3.13;93.03
50684;BME280;36654;45.042;38.994;2023-11-21T03:55:45;100690.00;;;3.13;93.06
50684;BME280;36654;45.042;38.994;2023-11-21T03:58:10;100691.41;;;3.05;93.13
50684;BME280;36654;45.042;38.994;2023-11-21T04:00:36;100636.84;;;2.72;93.27
50684;BME280;36654;45.042;38.994;2023-11-21T04:03:02;100685.22;;;3.03;93.29
50684;BME280;36654;45.042;38.994;2023-11-21T04:05:27;100691.25;;;3.02;93.64
50684;BME280;36654;45.042;38.994;2023-11-21T04:07:53;100708.09;;;3.07;93.70
50684;BME280;36654;45.042;38.994;2023-11-21T04:10:19;100708.03;;;3.06;93.70
50684;BME280;36654;45.042;38.994;2023-11-21T04:12:44;100722.97;;;3.08;94.01
50684;BME280;36654;45.042;38.994;2023-11-21T04:15:10;100719.38;;;3.06;94.16
50684;BME280;36654;45.042;38.994;2023-11-21T04:17:37;100731.66;;;3.07;94.19
50684;BME280;36654;45.042;38.994;2023-11-21T04:20:07;100721.69;;;2.98;94.48
50684;BME280;36654;45.042;38.994;2023-11-21T04:22:43;100737.03;;;3.10;94.35
50684;BME280;36654;45.042;38.994;2023-11-21T04:25:13;100719.00;;;2.97;94.56
50684;BME280;36654;45.042;38.994;2023-11-21T04:27:40;100745.78;;;3.11;94.40
50684;BME280;36654;45.042;38.994;2023-11-21T04:30:06;100726.16;;;3.01;94.43
50684;BME280;36654;45.042;38.994;2023-11-21T04:32:33;100710.59;;;2.83;94.40
50684;BME280;36654;45.042;38.994;2023-11-21T04:34:59;100754.13;;;3.02;94.52
50684;BME280;36654;45.042;38.994;2023-11-21T04:37:24;100769.16;;;3.06;94.42
50684;BME280;36654;45.042;38.994;2023-11-21T04:39:50;100769.16;;;3.06;94.54
50684;BME280;36654;45.042;38.994;2023-11-21T04:42:16;100771.78;;;3.06;94.50
50684;BME280;36654;45.042;38.994;2023-11-21T04:44:44;100774.47;;;3.08;94.50
50684;BME280;36654;45.042;38.994;2023-11-21T04:47:10;100767.38;;;3.05;94.59
50684;BME280;36654;45.042;38.994;2023-11-21T04:49:36;100776.97;;;3.05;94.41
50684;BME280;36654;45.042;38.994;2023-11-21T04:52:04;100778.41;;;2.98;94.47
50684;BME280;36654;45.042;38.994;2023-11-21T04:54:30;100787.47;;;3.06;94.61
50684;BME280;36654;45.042;38.994;2023-11-21T04:56:56;100767.28;;;3.03;94.63
50684;BME280;36654;45.042;38.994;2023-11-21T04:59:22;100777.84;;;3.05;94.89
50684;BME280;36654;45.042;38.994;2023-11-21T05:01:50;100779.44;;;3.01;94.71
50684;BME280;36654;45.042;38.994;2023-11-21T05:04:16;100719.53;;;2.67;94.88
50684;BME280;36654;45.042;38.994;2023-11-21T05:06:44;100797.84;;;3.03;95.02
50684;BME280;36654;45.042;38.994;2023-11-21T05:09:11;100799.81;;;3.09;95.04
50684;BME280;36654;45.042;38.994;2023-11-21T05:11:40;100782.13;;;3.03;95.16
50684;BME280;36654;45.042;38.994;2023-11-21T05:14:06;100801.75;;;3.13;95.14
50684;BME280;36654;45.042;38.994;2023-11-21T05:16:32;100791.84;;;3.06;95.24
50684;BME280;36654;45.042;38.994;2023-11-21T05:18:57;100773.88;;;2.94;94.99
50684;BME280;36654;45.042;38.994;2023-11-21T05:21:28;100821.81;;;3.12;94.97
50684;BME280;36654;45.042;38.994;2023-11-21T05:23:58;100821.63;;;3.08;95.08
50684;BME280;36654;45.042;38.994;2023-11-21T05:26:24;100833.06;;;3.10;94.86
50684;BME280;36654;45.042;38.994;2023-11-21T05:28:49;100787.69;;;2.90;94.88
50684;BME280;36654;45.042;38.994;2023-11-21T05:31:15;100839.09;;;3.09;95.14
50684;BME280;36654;45.042;38.994;2023-11-21T05:33:41;100828.59;;;3.07;95.11
50684;BME280;36654;45.042;38.994;2023-11-21T05:36:07;100821.22;;;2.98;94.76
50684;BME280;36654;45.042;38.994;2023-11-21T05:38:33;100839.09;;;3.09;94.75
50684;BME280;36654;45.042;38.994;2023-11-21T05:41:01;100841.53;;;3.04;94.87
50684;BME280;36654;45.042;38.994;2023-11-21T05:43:26;100857.41;;;3.07;94.89
50684;BME280;36654;45.042;38.994;2023-11-21T05:45:53;100853.41;;;2.96;94.69
50684;BME280;36654;45.042;38.994;2023-11-21T05:48:19;100869.66;;;3.08;95.08
50684;BME280;36654;45.042;38.994;2023-11-21T05:50:45;100810.00;;;2.81;94.86
50684;BME280;36654;45.042;38.994;2023-11-21T05:53:11;100868.97;;;3.12;95.20
50684;BME280;36654;45.042;38.994;2023-11-21T05:55:36;100865.31;;;3.09;95.02
50684;BME280;36654;45.042;38.994;2023-11-21T05:58:02;100878.59;;;3.13;94.92
50684;BME280;36654;45.042;38.994;2023-11-21T06:00:28;100858.88;;;3.02;94.80
50684;BME280;36654;45.042;38.994;2023-11-21T06:02:54;100873.16;;;3.09;94.93
50684;BME280;36654;45.042;38.994;2023-11-21T06:05:22;100863.66;;;3.11;94.84
50684;BME280;36654;45.042;38.994;2023-11-21T06:07:54;100828.50;;;2.85;94.96
50684;BME280;36654;45.042;38.994;2023-11-21T06:10:24;100878.72;;;3.16;95.03
50684;BME280;36654;45.042;38.994;2023-11-21T06:12:49;100861.72;;;3.07;94.88
50684;BME280;36654;45.042;38.994;2023-11-21T06:15:15;100866.19;;;3.09;94.84
50684;BME280;36654;45.042;38.994;2023-11-21T06:17:42;100885.63;;;3.14;94.91
50684;BME280;36654;45.042;38.994;2023-11-21T06:20:10;100879.25;;;3.08;94.78
50684;BME280;36654;45.042;38.994;2023-11-21T06:22:41;100896.25;;;3.17;95.05
50684;BME280;36654;45.042;38.994;2023-11-21T06:25:08;100903.19;;;3.17;95.11
50684;BME280;36654;45.042;38.994;2023-11-21T06:27:37;100866.63;;;2.99;95.21
50684;BME280;36654;45.042;38.994;2023-11-21T06:30:03;100882.41;;;3.20;95.13
50684;BME280;36654;45.042;38.994;2023-11-21T06:32:29;100886.66;;;3.18;95.16
50684;BME280;36654;45.042;38.994;2023-11-21T06:34:56;100891.91;;;3.18;94.98
50684;BME280;36654;45.042;38.994;2023-11-21T06:37:26;100912.09;;;3.20;94.69
50684;BME280;36654;45.042;38.994;2023-11-21T06:39:52;100884.72;;;3.14;94.78
50684;BME280;36654;45.042;38.994;2023-11-21T06:42:18;100908.94;;;3.28;94.38
50684;BME280;36654;45.042;38.994;2023-11-21T06:44:47;100914.16;;;3.28;94.60
50684;BME280;36654;45.042;38.994;2023-11-21T06:47:13;100892.81;;;3.18;94.54
50684;BME280;36654;45.042;38.994;2023-11-21T06:49:40;100903.81;;;3.31;94.60
50684;BME280;36654;45.042;38.994;2023-11-21T06:52:06;100882.44;;;3.21;94.25
50684;BME280;36654;45.042;38.994;2023-11-21T06:54:32;100895.34;;;3.17;93.80
50684;BME280;36654;45.042;38.994;2023-11-21T06:56:58;100902.63;;;3.24;93.75
50684;BME280;36654;45.042;38.994;2023-11-21T06:59:28;100911.75;;;3.32;93.55
50684;BME280;36654;45.042;38.994;2023-11-21T07:01:54;100915.81;;;3.26;93.34
50684;BME280;36654;45.042;38.994;2023-11-21T07:04:20;100869.53;;;3.05;93.17
50684;BME280;36654;45.042;38.994;2023-11-21T07:06:46;100887.47;;;3.17;92.90
50684;BME280;36654;45.042;38.994;2023-11-21T07:09:11;100920.50;;;3.33;92.71
50684;BME280;36654;45.042;38.994;2023-11-21T07:11:38;100917.88;;;3.33;92.71
50684;BME280;36654;45.042;38.994;2023-11-21T07:14:04;100920.75;;;3.39;92.53
50684;BME280;36654;45.042;38.994;2023-11-21T07:16:36;100909.06;;;3.31;92.40
50684;BME280;36654;45.042;38.994;2023-11-21T07:19:04;100927.25;;;3.47;92.65
50684;BME280;36654;45.042;38.994;2023-11-21T07:21:32;100947.91;;;3.60;92.54
50684;BME280;36654;45.042;38.994;2023-11-21T07:23:59;100948.88;;;3.62;92.28
50684;BME280;36654;45.042;38.994;2023-11-21T07:26:26;100938.06;;;3.55;92.36
50684;BME280;36654;45.042;38.994;2023-11-21T07:28:52;100945.00;;;3.54;92.17
50684;BME280;36654;45.042;38.994;2023-11-21T07:31:18;100956.97;;;3.68;92.14
50684;BME280;36654;45.042;38.994;2023-11-21T07:33:45;100933.38;;;3.68;92.26
50684;BME280;36654;45.042;38.994;2023-11-21T07:36:13;100917.00;;;3.53;92.09
50684;BME280;36654;45.042;38.994;2023-11-21T07:38:39;100926.22;;;3.64;92.29
50684;BME280;36654;45.042;38.994;2023-11-21T07:41:05;100949.38;;;3.75;92.24
50684;BME280;36654;45.042;38.994;2023-11-21T07:43:34;100947.69;;;3.77;92.13
50684;BME280;36654;45.042;38.994;2023-11-21T07:46:04;100947.97;;;3.83;92.28
50684;BME280;36654;45.042;38.994;2023-11-21T07:48:30;100936.19;;;3.73;92.30
50684;BME280;36654;45.042;38.994;2023-11-21T07:51:00;100947.97;;;3.83;92.31
50684;BME280;36654;45.042;38.994;2023-11-21T07:53:26;100949.75;;;3.84;92.38
50684;BME280;36654;45.042;38.994;2023-11-21T07:55:54;100944.38;;;3.81;91.95
50684;BME280;36654;45.042;38.994;2023-11-21T07:58:20;100955.16;;;3.87;92.19
50684;BME280;36654;45.042;38.994;2023-11-21T08:00:46;100951.75;;;3.89;91.86
50684;BME280;36654;45.042;38.994;2023-11-21T08:03:15;100951.69;;;3.88;91.82
50684;BME280;36654;45.042;38.994;2023-11-21T08:05:41;100957.00;;;3.89;91.66
50684;BME280;36654;45.042;38.994;2023-11-21T08:08:07;100950.03;;;3.90;91.49
50684;BME280;36654;45.042;38.994;2023-11-21T08:10:34;100950.97;;;3.92;91.45
50684;BME280;36654;45.042;38.994;2023-11-21T08:13:01;100943.81;;;3.88;91.03
50684;BME280;36654;45.042;38.994;2023-11-21T08:15:27;100956.16;;;3.91;91.18
50684;BME280;36654;45.042;38.994;2023-11-21T08:17:52;100951.56;;;3.85;90.94
50684;BME280;36654;45.042;38.994;2023-11-21T08:20:19;100942.72;;;3.83;90.51
50684;BME280;36654;45.042;38.994;2023-11-21T08:22:45;100954.50;;;3.93;90.81
50684;BME280;36654;45.042;38.994;2023-11-21T08:25:11;100980.91;;;3.97;90.81
50684;BME280;36654;45.042;38.994;2023-11-21T08:27:36;100962.69;;;4.00;90.68
50684;BME280;36654;45.042;38.994;2023-11-21T08:30:03;100970.94;;;3.88;90.01
50684;BME280;36654;45.042;38.994;2023-11-21T08:32:29;100968.66;;;3.77;89.49
50684;BME280;36654;45.042;38.994;2023-11-21T08:35:00;100959.09;;;3.77;88.70
50684;BME280;36654;45.042;38.994;2023-11-21T08:37:26;100940.03;;;3.60;88.83
50684;BME280;36654;45.042;38.994;2023-11-21T08:39:52;100985.78;;;3.88;88.25
50684;BME280;36654;45.042;38.994;2023-11-21T08:42:18;100978.66;;;3.85;87.78
50684;BME280;36654;45.042;38.994;2023-11-21T08:44:44;100973.03;;;3.76;87.26
50684;BME280;36654;45.042;38.994;2023-11-21T08:47:11;100963.94;;;3.68;86.90
50684;BME280;36654;45.042;38.994;2023-11-21T08:49:37;100991.59;;;3.81;86.28
50684;BME280;36654;45.042;38.994;2023-11-21T08:52:03;100991.72;;;3.84;86.19
50684;BME280;36654;45.042;38.994;2023-11-21T08:54:31;100972.38;;;3.82;85.68
50684;BME280;36654;45.042;38.994;2023-11-21T08:56:56;101002.19;;;3.84;85.19
50684;BME280;36654;45.042;38.994;2023-11-21T08:59:24;100993.31;;;3.80;84.76
50684;BME280;36654;45.042;38.994;2023-11-21T09:01:52;100996.00;;;3.82;84.57
50684;BME280;36654;45.042;38.994;2023-11-21T09:04:18;100996.94;;;3.84;84.30
50684;BME280;36654;45.042;38.994;2023-11-21T09:06:43;100986.34;;;3.81;84.32
50684;BME280;36654;45.042;38.994;2023-11-21T09:09:09;100999.66;;;3.85;84.34
50684;BME280;36654;45.042;38.994;2023-11-21T09:11:36;100959.19;;;3.59;84.14
50684;BME280;36654;45.042;38.994;2023-11-21T09:14:02;100988.28;;;3.85;83.98
50684;BME280;36654;45.042;38.994;2023-11-21T09:16:31;100996.91;;;3.82;83.92
50684;BME280;36654;45.042;38.994;2023-11-21T09:18:58;100997.69;;;3.80;83.80
50684;BME280;36654;45.042;38.994;2023-11-21T09:21:23;100977.91;;;3.67;83.98
50684;BME280;36654;45.042;38.994;2023-11-21T09:23:51;100995.19;;;3.83;84.08
50684;BME280;36654;45.042;38.994;2023-11-21T09:26:16;100982.50;;;3.73;84.27
50684;BME280;36654;45.042;38.994;2023-11-21T09:28:46;100937.91;;;3.52;84.43
50684;BME280;36654;45.042;38.994;2023-11-21T09:31:14;100998.75;;;3.85;84.46
50684;BME280;36654;45.042;38.994;2023-11-21T09:33:42;100964.44;;;3.59;84.53
50684;BME280;36654;45.042;38.994;2023-11-21T09:36:12;101003.84;;;3.82;84.85
50684;BME280;36654;45.042;38.994;2023-11-21T09:38:41;100985.94;;;3.72;85.10
50684;BME280;36654;45.042;38.994;2023-11-21T09:41:19;101000.31;;;3.80;85.25
50684;BME280;36654;45.042;38.994;2023-11-21T09:43:47;101011.69;;;3.80;85.21
50684;BME280;36654;45.042;38.994;2023-11-21T09:46:16;101008.94;;;3.77;85.38
50684;BME280;36654;45.042;38.994;2023-11-21T09:48:50;100996.75;;;3.79;85.52
50684;BME280;36654;45.042;38.994;2023-11-21T09:51:19;101012.66;;;3.82;85.48
50684;BME280;36654;45.042;38.994;2023-11-21T09:53:49;100965.03;;;3.52;85.53
50684;BME280;36654;45.042;38.994;2023-11-21T09:56:17;101013.63;;;3.84;85.58
50684;BME280;36654;45.042;38.994;2023-11-21T09:58:51;101029.28;;;3.83;85.68
50684;BME280;36654;45.042;38.994;2023-11-21T10:01:17;101028.31;;;3.81;85.94
50684;BME280;36654;45.042;38.994;2023-11-21T10:03:43;101033.53;;;3.81;86.10
50684;BME280;36654;45.042;38.994;2023-11-21T10:06:09;101021.00;;;3.74;86.36
50684;BME280;36654;45.042;38.994;2023-11-21T10:08:39;101023.13;;;3.82;86.69
50684;BME280;36654;45.042;38.994;2023-11-21T10:11:07;100973.81;;;3.54;86.87
50684;BME280;36654;45.042;38.994;2023-11-21T10:13:37;101029.47;;;3.87;87.26
50684;BME280;36654;45.042;38.994;2023-11-21T10:16:04;101020.13;;;3.94;87.41
50684;BME280;36654;45.042;38.994;2023-11-21T10:18:32;101037.91;;;4.01;87.60
50684;BME280;36654;45.042;38.994;2023-11-21T10:20:59;101039.84;;;4.05;87.51
50684;BME280;36654;45.042;38.994;2023-11-21T10:23:27;101033.75;;;4.06;87.72
50684;BME280;36654;45.042;38.994;2023-11-21T10:25:53;101018.47;;;3.96;87.90
50684;BME280;36654;45.042;38.994;2023-11-21T10:28:20;100989.94;;;3.83;87.74
50684;BME280;36654;45.042;38.994;2023-11-21T10:30:46;101039.97;;;4.08;88.18
50684;BME280;36654;45.042;38.994;2023-11-21T10:33:12;101025.88;;;4.06;88.32
50684;BME280;36654;45.042;38.994;2023-11-21T10:38:07;101037.53;;;4.13;88.63
50684;BME280;36654;45.042;38.994;2023-11-21T10:40:42;101035.00;;;4.15;88.78
50684;BME280;36654;45.042;38.994;2023-11-21T10:43:10;101030.69;;;4.17;88.90
50684;BME280;36654;45.042;38.994;2023-11-21T10:45:38;101022.97;;;4.20;89.09
50684;BME280;36654;45.042;38.994;2023-11-21T10:48:07;101012.47;;;4.20;89.30
50684;BME280;36654;45.042;38.994;2023-11-21T10:50:37;101040.16;;;4.13;89.19
50684;BME280;36654;45.042;38.994;2023-11-21T10:53:05;101043.56;;;4.10;89.05
50684;BME280;36654;45.042;38.994;2023-11-21T10:55:32;101047.84;;;4.08;89.03
50684;BME280;36654;45.042;38.994;2023-11-21T10:58:03;101048.59;;;4.06;88.99
50684;BME280;36654;45.042;38.994;2023-11-21T11:00:31;101002.72;;;3.75;88.98
50684;BME280;36654;45.042;38.994;2023-11-21T11:02:57;101026.38;;;3.77;88.99
50684;BME280;36654;45.042;38.994;2023-11-21T11:05:25;101059.75;;;4.00;88.99
50684;BME280;36654;45.042;38.994;2023-11-21T11:08:04;101065.81;;;3.99;89.27
50684;BME280;36654;45.042;38.994;2023-11-21T11:10:31;101055.19;;;3.96;89.30
50684;BME280;36654;45.042;38.994;2023-11-21T11:12:58;101066.22;;;4.08;89.73
50684;BME280;36654;45.042;38.994;2023-11-21T11:15:25;101070.00;;;4.15;89.73
50684;BME280;36654;45.042;38.994;2023-11-21T11:17:52;101073.75;;;4.22;90.02
50684;BME280;36654;45.042;38.994;2023-11-21T11:20:18;101053.47;;;4.18;90.01
50684;BME280;36654;45.042;38.994;2023-11-21T11:28:55;101075.44;;;4.41;90.09
50684;BME280;36654;45.042;38.994;2023-11-21T11:37:17;101036.00;;;4.18;90.22
50684;BME280;36654;45.042;38.994;2023-11-21T11:39:43;101081.84;;;4.47;89.94
50684;BME280;36654;45.042;38.994;2023-11-21T11:42:13;101074.00;;;4.49;90.23
50684;BME280;36654;45.042;38.994;2023-11-21T11:47:28;101051.09;;;4.24;89.73
50684;BME280;36654;45.042;38.994;2023-11-21T11:50:12;101068.00;;;4.30;89.67
50684;BME280;36654;45.042;38.994;2023-11-21T11:52:52;101084.97;;;4.39;89.04
50684;BME280;36654;45.042;38.994;2023-11-21T11:55:20;101096.19;;;4.35;88.80
50684;BME280;36654;45.042;38.994;2023-11-21T11:57:48;101092.22;;;4.44;88.68
50684;BME280;36654;45.042;38.994;2023-11-21T12:02:56;101116.78;;;4.46;88.22
50684;BME280;36654;45.042;38.994;2023-11-21T12:05:27;101118.59;;;4.47;88.40
50684;BME280;36654;45.042;38.994;2023-11-21T12:07:57;101111.72;;;4.51;88.14
50684;BME280;36654;45.042;38.994;2023-11-21T12:10:30;101111.53;;;4.46;88.30
50684;BME280;36654;45.042;38.994;2023-11-21T12:13:05;101120.59;;;4.53;88.09
50684;BME280;36654;45.042;38.994;2023-11-21T12:15:34;101117.88;;;4.51;88.21
50684;BME280;36654;45.042;38.994;2023-11-21T12:18:01;101115.25;;;4.51;87.92
50684;BME280;36654;45.042;38.994;2023-11-21T12:20:27;101114.63;;;4.57;88.16
50684;BME280;36654;45.042;38.994;2023-11-21T12:23:00;101123.53;;;4.61;87.95
50684;BME280;36654;45.042;38.994;2023-11-21T12:25:27;101109.38;;;4.57;87.90
50684;BME280;36654;45.042;38.994;2023-11-21T12:28:01;101115.91;;;4.67;87.84
50684;BME280;36654;45.042;38.994;2023-11-21T12:30:30;101126.53;;;4.70;87.78
50684;BME280;36654;45.042;38.994;2023-11-21T12:32:58;101103.34;;;4.60;87.54
50684;BME280;36654;45.042;38.994;2023-11-21T12:35:26;101116.91;;;4.70;87.69
50684;BME280;36654;45.042;38.994;2023-11-21T12:37:54;101104.25;;;4.60;87.51
50684;BME280;36654;45.042;38.994;2023-11-21T12:40:20;101136.63;;;4.82;87.51
50684;BME280;36654;45.042;38.994;2023-11-21T12:42:54;101125.38;;;4.84;87.27
50684;BME280;36654;45.042;38.994;2023-11-21T12:45:24;101129.78;;;4.85;86.59
50684;BME280;36654;45.042;38.994;2023-11-21T12:47:59;101124.16;;;4.76;86.01
50684;BME280;36654;45.042;38.994;2023-11-21T12:50:26;101145.44;;;4.82;85.39
50684;BME280;36654;45.042;38.994;2023-11-21T12:53:04;101137.84;;;4.69;84.64
50684;BME280;36654;45.042;38.994;2023-11-21T12:55:32;101154.69;;;4.74;83.75
50684;BME280;36654;45.042;38.994;2023-11-21T12:58:01;101145.63;;;4.66;83.58
50684;BME280;36654;45.042;38.994;2023-11-21T13:00:37;101162.59;;;4.74;83.67
50684;BME280;36654;45.042;38.994;2023-11-21T13:03:05;101166.06;;;4.73;83.89
50684;BME280;36654;45.042;38.994;2023-11-21T13:05:34;101160.09;;;4.77;84.25
50684;BME280;36654;45.042;38.994;2023-11-21T13:08:04;101154.47;;;4.68;84.25
50684;BME280;36654;45.042;38.994;2023-11-21T13:10:33;101179.44;;;4.79;84.14